Time;durP1;ratioP1;P1;durP2;ratioP2;P2;SDS_P1;SDS_P2;PMS_P1;PMS_P2;Temp;Humidity;BMP_temperature;BMP_pressure;BME280_temperature;BME280_humidity;BME280_pressure;Samples;Min_cycle;Max_cycle;Signal;HPM_P1;HPM_P2
2022/08/04 00:04:36;;;;;;;1.65;1.02;;;;;;;;;;20903155;28;20623;-74
2022/08/04 00:14:45;;;;;;;1.52;0.80;;;;;;;;;;20900243;28;20347;-74
2022/08/04 00:24:47;;;;;;;1.88;0.90;;;;;;;;;;21000241;22;20228;-71
2022/08/04 00:34:49;;;;;;;1.25;0.80;;;;;;;;;;21060325;28;20737;-71
2022/08/04 00:44:51;;;;;;;1.23;0.82;;;;;;;;;;21067270;28;20289;-71
2022/08/04 00:54:59;;;;;;;1.27;1.10;;;;;;;;;;21015482;28;20278;-71
2022/08/04 01:05:06;;;;;;;1.80;0.95;;;;;;;;;;21035852;28;20220;-71
2022/08/04 01:15:23;;;;;;;1.30;0.80;;;;;;;;;;21031121;28;20701;-71
2022/08/04 01:25:24;;;;;;;1.80;0.90;;;;;;;;;;21014118;28;20568;-71
2022/08/04 01:35:33;;;;;;;5.53;1.55;;;27.90;93.90;;;;;;21043547;28;20227;-71
2022/08/04 01:45:37;;;;;;;1.83;0.90;;;;;;;;;;21080203;28;20223;-71
2022/08/04 01:55:41;;;;;;;1.63;0.90;;;;;;;;;;21022869;28;20281;-71
2022/08/04 02:05:49;;;;;;;2.55;0.95;;;27.20;96.50;;;;;;21068766;28;20291;-71
2022/08/04 02:16:11;;;;;;;3.30;1.60;;;27.20;84.70;;;;;;21061164;28;20223;-71
2022/08/04 02:26:17;;;;;;;1.83;0.90;;;27.00;95.40;;;;;;21009140;28;20223;-72
2022/08/04 02:36:23;;;;;;;1.35;0.88;;;;;;;;;;20992914;28;20243;-71
2022/08/04 02:46:25;;;;;;;1.20;0.80;;;26.70;91.80;;;;;;20992635;28;20625;-71
2022/08/04 02:56:29;;;;;;;1.83;0.80;;;26.90;94.90;;;;;;21011383;28;20699;-71
2022/08/04 03:06:31;;;;;;;1.90;1.08;;;;;;;;;;20992590;28;20556;-71
2022/08/04 03:16:38;;;;;;;1.00;0.80;;;;;;;;;;20972484;28;20556;-71
2022/08/04 03:26:40;;;;;;;2.80;1.08;;;;;;;;;;21006710;28;20590;-71
2022/08/04 03:36:47;;;;;;;1.45;1.02;;;26.60;87.10;;;;;;20970337;28;20211;-71
2022/08/04 03:47:17;;;;;;;1.50;0.80;;;26.60;84.90;;;;;;20968642;28;20258;-68
2022/08/04 03:57:19;;;;;;;3.40;1.40;;;;;;;;;;21004787;28;20258;-69
2022/08/04 04:07:32;;;;;;;3.13;1.10;;;;;;;;;;20967876;28;20650;-68
2022/08/04 04:18:25;;;;;;;15.27;2.22;;;26.30;94.50;;;;;;20986218;28;20205;-68
2022/08/04 04:28:33;;;;;;;1.90;0.85;;;;;;;;;;20941001;28;20223;-68
2022/08/04 04:38:41;;;;;;;2.97;1.20;;;;;;;;;;20984481;28;20210;-68
2022/08/04 04:49:00;;;;;;;10.02;2.30;;;26.20;99.10;;;;;;20984210;28;20568;-68
2022/08/04 04:59:05;;;;;;;2.10;1.10;;;25.80;99.90;;;;;;21002256;28;20270;-68
2022/08/04 05:09:17;;;;;;;6.93;1.52;;;;;;;;;;20967960;28;20247;-68
2022/08/04 05:19:19;;;;;;;10.75;1.90;;;;;;;;;;20998675;28;20214;-68
2022/08/04 05:29:48;;;;;;;4.32;1.90;;;26.20;99.50;;;;;;21021881;28;20205;-68
2022/08/04 05:39:53;;;;;;;6.93;1.60;;;;;;;;;;20988674;28;20231;-72
2022/08/04 05:49:55;;;;;;;2.95;1.20;;;;;;;;;;20994863;28;20273;-72
2022/08/04 06:00:00;;;;;;;1.08;0.70;;;26.50;98.00;;;;;;21010340;28;20228;-72
2022/08/04 06:10:02;;;;;;;2.47;0.82;;;;;;;;;;21002654;28;20220;-72
2022/08/04 06:20:06;;;;;;;1.55;0.70;;;26.70;95.40;;;;;;20975247;28;20789;-69
2022/08/04 06:30:13;;;;;;;1.35;0.80;;;26.70;95.50;;;;;;20993694;28;20219;-73
2022/08/04 06:40:17;;;;;;;3.25;0.80;;;;;;;;;;21072422;22;20262;-72
2022/08/04 06:50:19;;;;;;;2.17;0.82;;;;;;;;;;21046550;28;20693;-72
2022/08/04 07:00:22;;;;;;;2.47;0.98;;;;;;;;;;21025662;28;20228;-72
2022/08/04 07:10:25;;;;;;;1.70;0.90;;;;;;;;;;21048096;28;20209;-72
2022/08/04 07:20:27;;;;;;;1.15;0.82;;;;;;;;;;20979835;28;20850;-73
2022/08/04 07:30:30;;;;;;;1.88;1.00;;;27.80;87.30;;;;;;21005650;28;20262;-72
2022/08/04 07:40:34;;;;;;;1.90;1.05;;;28.10;89.90;;;;;;21048879;28;20257;-73
2022/08/04 07:50:37;;;;;;;1.50;0.75;;;27.40;94.60;;;;;;20981865;28;20247;-73
2022/08/04 08:00:39;;;;;;;1.52;0.82;;;;;;;;;;20983478;28;20224;-73
2022/08/04 08:10:46;;;;;;;1.45;0.88;;;28.70;93.30;;;;;;20984993;28;20265;-73
2022/08/04 08:20:47;;;;;;;0.90;0.70;;;;;;;;;;20986943;28;20221;-74
2022/08/04 08:30:49;;;;;;;0.93;0.60;;;;;;;;;;20980549;28;20279;-73
2022/08/04 08:41:06;;;;;;;2.90;1.30;;;29.50;92.60;;;;;;20981501;28;20216;-73
2022/08/04 08:51:23;;;;;;;3.17;1.00;;;29.70;81.00;;;;;;20982850;28;20747;-74
2022/08/04 09:01:43;;;;;;;3.95;1.13;;;30.00;80.00;;;;;;20980697;28;20625;-74
2022/08/04 09:12:26;;;;;;;2.10;1.00;;;30.20;80.80;;;;;;21008775;28;20269;-74
2022/08/04 09:22:32;;;;;;;1.77;1.08;;;;;;;;;;21029098;28;20224;-74
2022/08/04 09:32:41;;;;;;;2.10;1.00;;;;;;;;;;21055714;28;20209;-75
2022/08/04 09:43:28;;;;;;;1.52;0.88;;;31.10;82.70;;;;;;21063430;28;20235;-74
2022/08/04 09:53:41;;;;;;;2.88;1.00;;;;;;;;;;21004046;28;20642;-75
2022/08/04 10:03:48;;;;;;;2.28;0.80;;;31.60;82.70;;;;;;20994969;28;20254;-75
2022/08/04 10:13:50;;;;;;;1.15;0.60;;;;;;;;;;20994858;28;20178;-73
2022/08/04 10:24:19;;;;;;;0.73;0.60;;;32.30;77.90;;;;;;21018914;28;20212;-75
2022/08/04 10:34:26;;;;;;;1.13;0.60;;;32.50;79.90;;;;;;21058393;28;20217;-74
2022/08/04 10:44:35;;;;;;;2.28;0.93;;;;;;;;;;21052946;28;20250;-75
2022/08/04 10:54:48;;;;;;;1.38;0.70;;;33.00;67.60;;;;;;21021956;28;20329;-74
2022/08/04 11:05:02;;;;;;;0.80;0.60;;;33.40;75.60;;;;;;21017751;28;20229;-75
2022/08/04 11:15:17;;;;;;;0.80;0.60;;;33.50;74.90;;;;;;21061872;28;20216;-75
2022/08/04 11:25:22;;;;;;;0.85;0.40;;;33.70;68.50;;;;;;21013216;28;20217;-74
2022/08/04 11:35:37;;;;;;;0.95;0.50;;;33.90;71.30;;;;;;20988428;28;20225;-74
2022/08/04 11:45:53;;;;;;;1.55;0.52;;;34.30;75.50;;;;;;20974895;28;20217;-74
2022/08/04 11:56:00;;;;;;;2.63;0.60;;;34.70;69.90;;;;;;21048811;28;20587;-74
2022/08/04 12:06:13;;;;;;;1.98;0.63;;;;;;;;;;21064142;28;20212;-75
2022/08/04 12:16:27;;;;;;;1.33;0.60;;;;;;;;;;21067023;28;20649;-75
2022/08/04 12:26:41;;;;;;;1.55;0.60;;;35.00;67.90;;;;;;20997935;28;20213;-74
2022/08/04 12:37:03;;;;;;;0.50;0.47;;;;;;;;;;20982477;28;20233;-74
2022/08/04 12:47:07;;;;;;;1.05;0.50;;;35.60;60.60;;;;;;20983349;28;20205;-74
2022/08/04 12:57:10;;;;;;;0.77;0.43;;;;;;;;;;21063176;22;20225;-74
2022/08/04 13:07:15;;;;;;;0.88;0.45;;;;;;;;;;21084668;28;20624;-75
2022/08/04 13:17:18;;;;;;;1.05;0.50;;;;;;;;;;21083702;28;20274;-75
2022/08/04 13:27:21;;;;;;;0.68;0.50;;;36.10;56.90;;;;;;21114928;28;20208;-75
2022/08/04 13:37:29;;;;;;;2.38;0.60;;;36.20;60.50;;;;;;21163344;28;20212;-75
2022/08/04 13:47:34;;;;;;;1.05;0.60;;;36.10;68.90;;;;;;21164138;28;20517;-75
2022/08/04 13:57:42;;;;;;;0.50;0.47;;;;;;;;;;21081111;28;20648;-76
2022/08/04 14:07:53;;;;;;;1.20;0.50;;;36.60;64.90;;;;;;21073953;28;20667;-73
2022/08/04 14:18:14;;;;;;;1.98;0.57;;;36.70;62.00;;;;;;21091661;28;20237;-75
2022/08/04 14:28:29;;;;;;;1.95;0.60;;;36.20;61.10;;;;;;21086017;28;20743;-76
2022/08/04 14:38:43;;;;;;;0.90;0.60;;;;;;;;;;21075120;28;20220;-77
2022/08/04 14:49:05;;;;;;;1.10;0.70;;;;;;;;;;21084128;28;20780;-76
2022/08/04 14:59:08;;;;;;;0.93;0.60;;;;;;;;;;21062999;28;20433;-76
2022/08/04 15:09:10;;;;;;;2.35;0.50;;;;;;;;;;21034599;28;20228;-77
2022/08/04 15:19:15;;;;;;;0.80;0.60;;;;;;;;;;21039907;28;20320;-77
2022/08/04 15:29:25;;;;;;;0.80;0.43;;;;;;;;;;21003991;28;20699;-77
2022/08/04 15:39:54;;;;;;;1.10;0.63;;;37.10;56.00;;;;;;21023124;28;20522;-77
2022/08/04 15:50:07;;;;;;;4.00;0.70;;;;;;;;;;21033071;28;20217;-76
2022/08/04 16:00:09;;;;;;;0.65;0.50;;;;;;;;;;21042004;28;20212;-76
2022/08/04 16:10:33;;;;;;;0.68;0.47;;;;;;;;;;21005669;28;20201;-76
2022/08/04 16:20:36;;;;;;;0.65;0.52;;;;;;;;;;21040793;28;20726;-75
2022/08/04 16:30:40;;;;;;;0.75;0.50;;;;;;;;;;21020433;28;20197;-74
2022/08/04 16:40:43;;;;;;;0.90;0.47;;;;;;;;;;20999807;28;20235;-74
2022/08/04 16:50:49;;;;;;;0.60;0.47;;;;;;;;;;21046948;28;20197;-74
2022/08/04 17:00:51;;;;;;;1.05;0.52;;;;;;;;;;21045347;28;20224;-71
2022/08/04 17:10:53;;;;;;;1.17;0.52;;;;;;;;;;21037564;28;20217;-75
2022/08/04 17:20:57;;;;;;;0.40;0.40;;;35.60;59.30;;;;;;21067814;28;20285;-75
2022/08/04 17:30:58;;;;;;;1.73;0.55;;;35.90;55.10;;;;;;21070090;28;20212;-75
2022/08/04 17:41:01;;;;;;;0.50;0.40;;;;;;;;;;21074340;28;20307;-77
2022/08/04 17:51:16;;;;;;;0.98;0.45;;;;;;;;;;21075826;28;20610;-76
2022/08/04 18:01:17;;;;;;;4.30;0.85;;;;;;;;;;21069529;28;20216;-76
2022/08/04 18:11:19;;;;;;;2.58;0.60;;;;;;;;;;21082868;28;20209;-75
2022/08/04 18:21:21;;;;;;;1.13;0.63;;;;;;;;;;21071623;28;20246;-76
2022/08/04 18:31:22;;;;;;;1.33;0.60;;;;;;;;;;21079195;28;20212;-76
2022/08/04 18:41:24;;;;;;;1.77;0.90;;;;;;;;;;21014170;28;20252;-76
2022/08/04 18:51:29;;;;;;;2.58;0.70;;;;;;;;;;21061554;28;20242;-76
2022/08/04 19:01:32;;;;;;;1.70;0.50;;;34.50;67.70;;;;;;21049433;28;20208;-75
2022/08/04 19:11:33;;;;;;;1.20;0.60;;;34.30;71.30;;;;;;20986891;28;20263;-76
2022/08/04 19:21:35;;;;;;;3.40;0.88;;;;;;;;;;21010746;28;20819;-76
2022/08/04 19:31:37;;;;;;;1.63;0.80;;;;;;;;;;21063580;28;20208;-76
2022/08/04 19:41:39;;;;;;;1.70;0.70;;;33.80;68.20;;;;;;21065918;28;20715;-76
2022/08/04 19:51:41;;;;;;;4.82;1.00;;;;;;;;;;21070299;28;20566;-75
2022/08/04 20:01:42;;;;;;;8.20;1.50;;;;;;;;;;21068875;28;20229;-76
2022/08/04 20:11:45;;;;;;;8.55;1.48;;;;;;;;;;21069154;28;20292;-74
2022/08/04 20:21:47;;;;;;;4.88;1.38;;;;;;;;;;21066684;28;20226;-77
2022/08/04 20:31:48;;;;;;;3.15;1.35;;;;;;;;;;21135747;28;20261;-75
2022/08/04 20:41:50;;;;;;;1.63;0.80;;;;;;;;;;21151663;28;20204;-75
2022/08/04 20:51:55;;;;;;;2.03;0.80;;;;;;;;;;21120100;28;20232;-75
2022/08/04 21:01:56;;;;;;;2.65;0.70;;;;;;;;;;21049434;28;20660;-75
2022/08/04 21:11:59;;;;;;;1.00;0.68;;;;;;;;;;21064357;28;20216;-75
2022/08/04 21:22:00;;;;;;;2.65;1.75;;;;;;;;;;21065748;28;20217;-76
2022/08/04 21:32:05;;;;;;;1.95;0.70;;;;;;;;;;21065741;28;20200;-76
2022/08/04 21:42:08;;;;;;;1.05;0.50;;;;;;;;;;21064782;28;20244;-76
2022/08/04 21:52:09;;;;;;;2.25;0.50;;;;;;;;;;21068859;28;20247;-76
2022/08/04 22:02:11;;;;;;;1.83;0.60;;;;;;;;;;21081870;28;20217;-75
2022/08/04 22:12:13;;;;;;;1.33;0.50;;;;;;;;;;21080004;28;20257;-75
2022/08/04 22:22:15;;;;;;;1.58;0.60;;;;;;;;;;21078634;28;20633;-76
2022/08/04 22:32:17;;;;;;;0.90;0.55;;;;;;;;;;21076878;28;20208;-76
2022/08/04 22:42:18;;;;;;;1.23;0.40;;;;;;;;;;21076943;28;20217;-76
2022/08/04 22:52:20;;;;;;;1.17;0.65;;;;;;;;;;21074396;28;20285;-75
2022/08/04 23:02:21;;;;;;;2.72;0.63;;;;;;;;;;21063807;28;20712;-74
2022/08/04 23:12:23;;;;;;;1.67;0.70;;;;;;;;;;21053348;28;20216;-75
2022/08/04 23:22:25;;;;;;;2.90;0.63;;;;;;;;;;21072740;28;20637;-75
2022/08/04 23:32:27;;;;;;;1.10;0.70;;;;;;;;;;21103179;28;20261;-75
2022/08/04 23:42:29;;;;;;;2.53;0.80;;;;;;;;;;21124086;28;20224;-75
2022/08/04 23:52:31;;;;;;;3.17;0.98;;;;;;;;;;21118328;28;20266;-75
